Champaign, Illinois
Current Conditions -  °F | °C
As of 9:53 AM on Sunday 21 Dec 2014 (Local Time) from KCMI Reporting Station
Haze Haze  
Wind Chill: 24°   Ceiling: 3400
Heat Index: 33°   Visibility: 6mi
Dew Point: 28°   Wind: 13mph
Humidity: 82%   Direction: 150°SSE
Pressure: 30.23"   Gusts: NA
Location:  40.11°N, 88.24°W
Report Text: KCMI 211553Z 15011KT 6SM HZ OVC034 01/M02 A3023 RMK AO2 SLP246 T00061022
Loading
Personal Weather Stations






























Interactive Weather Map New forecast layout! Learn more

10-Day Weather Forecast

Advertisements
Track Severe Weather on mobile